createdAt,value
2023-04-17T00:01:32.537Z,17.50
2023-04-17T00:05:41.103Z,17.40
2023-04-17T00:09:51.386Z,16.30
2023-04-17T00:14:00.737Z,16.20
2023-04-17T00:18:09.212Z,17.50
2023-04-17T00:22:17.275Z,16.90
2023-04-17T00:26:25.307Z,17.40
2023-04-17T00:30:33.532Z,18.70
2023-04-17T00:34:43.352Z,18.50
2023-04-17T00:38:51.406Z,22.30
2023-04-17T00:43:02.890Z,22.70
2023-04-17T00:47:11.324Z,19.50
2023-04-17T00:51:19.289Z,23.80
2023-04-17T00:55:27.332Z,19.70
2023-04-17T00:59:35.694Z,19.40
2023-04-17T01:03:45.879Z,20.30
2023-04-17T01:07:53.804Z,19.30
2023-04-17T01:12:21.816Z,23.40
2023-04-17T01:16:31.326Z,22.50
2023-04-17T01:20:39.164Z,18.40
2023-04-17T01:24:47.312Z,18.50
2023-04-17T01:28:56.822Z,17.40
2023-04-17T01:33:07.617Z,19.70
2023-04-17T01:37:16.815Z,19.80
2023-04-17T01:41:24.517Z,21.50
2023-04-17T01:45:32.385Z,19.00
2023-04-17T01:49:40.253Z,18.40
2023-04-17T01:53:48.669Z,22.00
2023-04-17T01:57:56.815Z,19.80
2023-04-17T02:02:04.933Z,20.80
2023-04-17T02:06:13.332Z,19.50
2023-04-17T02:10:21.391Z,18.40
2023-04-17T02:14:31.292Z,18.70
2023-04-17T02:18:40.898Z,22.80
2023-04-17T02:22:48.401Z,27.10
2023-04-17T02:26:58.976Z,23.40
2023-04-17T02:31:10.587Z,21.00
2023-04-17T02:35:18.383Z,21.40
2023-04-17T02:39:27.480Z,22.30
2023-04-17T02:43:35.755Z,22.30
2023-04-17T02:47:43.565Z,21.30
2023-04-17T02:51:52.966Z,22.00
2023-04-17T02:56:01.121Z,21.00
2023-04-17T03:00:13.858Z,22.60
2023-04-17T03:04:22.505Z,22.00
2023-04-17T03:08:35.656Z,21.90
2023-04-17T03:12:43.798Z,23.50
2023-04-17T03:16:51.722Z,24.90
2023-04-17T03:20:59.934Z,24.30
2023-04-17T03:25:08.777Z,25.50
2023-04-17T03:29:17.635Z,26.00
2023-04-17T03:33:25.933Z,22.20
2023-04-17T03:37:34.055Z,26.10
2023-04-17T03:41:42.341Z,23.60
2023-04-17T03:45:51.147Z,23.90
2023-04-17T03:49:59.270Z,23.60
2023-04-17T03:54:08.078Z,22.50
2023-04-17T03:58:16.250Z,21.10
2023-04-17T04:02:26.680Z,24.70
2023-04-17T04:06:34.938Z,25.70
2023-04-17T04:10:45.272Z,23.40
2023-04-17T04:14:52.909Z,24.10
2023-04-17T04:19:01.064Z,25.20
2023-04-17T04:23:08.781Z,27.50
2023-04-17T04:27:18.190Z,28.70
2023-04-17T04:31:26.191Z,25.50
2023-04-17T04:35:35.559Z,29.90
2023-04-17T04:39:43.435Z,28.70
2023-04-17T04:43:51.616Z,31.30
2023-04-17T04:48:00.411Z,30.80
2023-04-17T04:52:08.519Z,31.50
2023-04-17T04:56:16.676Z,27.70
2023-04-17T05:00:25.426Z,29.50
2023-04-17T05:04:33.563Z,27.20
2023-04-17T05:08:41.683Z,27.30
2023-04-17T05:12:49.752Z,29.60
2023-04-17T05:16:57.765Z,31.60
2023-04-17T05:21:05.814Z,29.80
2023-04-17T05:25:14.236Z,30.00
2023-04-17T05:29:22.059Z,28.00
2023-04-17T05:33:37.686Z,25.30
2023-04-17T05:37:48.447Z,25.60
2023-04-17T05:41:56.265Z,27.20
2023-04-17T05:46:06.200Z,28.00
2023-04-17T05:50:14.562Z,28.50
2023-04-17T05:54:24.797Z,28.10
2023-04-17T05:58:40.376Z,34.00
2023-04-17T06:02:48.427Z,32.30
2023-04-17T06:06:58.743Z,31.40
2023-04-17T06:11:07.126Z,33.20
2023-04-17T06:15:18.743Z,32.30
2023-04-17T06:19:29.254Z,35.20
2023-04-17T06:23:37.795Z,36.40
2023-04-17T06:27:47.170Z,36.00
2023-04-17T06:31:55.106Z,34.20
2023-04-17T06:36:04.789Z,39.00
2023-04-17T06:40:15.771Z,38.50
2023-04-17T06:44:29.126Z,38.00
2023-04-17T06:48:39.499Z,37.40
2023-04-17T06:52:53.488Z,37.30
2023-04-17T06:57:09.676Z,32.80
2023-04-17T07:01:17.520Z,31.50
2023-04-17T07:05:26.861Z,34.30
2023-04-17T07:09:41.208Z,33.50
2023-04-17T07:13:49.356Z,34.80
2023-04-17T07:17:57.728Z,34.30
2023-04-17T07:22:12.697Z,34.00
2023-04-17T07:26:19.974Z,38.80
2023-04-17T07:30:28.905Z,35.90
2023-04-17T07:34:41.386Z,38.00
2023-04-17T07:38:52.662Z,36.70
2023-04-17T07:43:11.011Z,37.80
2023-04-17T07:47:18.632Z,38.40
2023-04-17T07:51:34.921Z,39.80
2023-04-17T07:55:44.416Z,36.00
2023-04-17T07:59:57.495Z,39.60
2023-04-17T08:04:05.961Z,37.70
2023-04-17T08:08:22.328Z,41.10
2023-04-17T08:12:30.983Z,41.60
2023-04-17T08:16:40.817Z,43.60
2023-04-17T08:20:51.752Z,43.70
2023-04-17T08:24:59.903Z,41.30
2023-04-17T08:29:08.711Z,41.80
2023-04-17T08:33:19.254Z,41.80
2023-04-17T08:37:32.517Z,40.70
2023-04-17T08:41:51.732Z,38.80
2023-04-17T08:46:01.096Z,35.50
2023-04-17T08:50:17.131Z,36.20
2023-04-17T08:54:27.814Z,37.90
2023-04-17T08:58:37.355Z,37.90
2023-04-17T09:03:08.086Z,36.00
2023-04-17T09:07:16.990Z,35.70
2023-04-17T09:11:24.764Z,35.20
2023-04-17T09:15:33.279Z,28.50
2023-04-17T09:19:43.023Z,24.70
2023-04-17T09:23:55.950Z,25.90
2023-04-17T09:28:14.817Z,36.50
2023-04-17T09:32:26.020Z,37.60
2023-04-17T09:36:37.089Z,35.20
2023-04-17T09:40:45.319Z,34.80
2023-04-17T09:44:59.537Z,33.40
2023-04-17T09:49:18.946Z,33.20
2023-04-17T09:53:26.622Z,31.00
2023-04-17T09:57:35.150Z,15.20
2023-04-17T10:01:45.246Z,18.80
2023-04-17T10:06:00.271Z,22.40
2023-04-17T10:10:12.165Z,23.10
2023-04-17T10:14:29.390Z,20.00
2023-04-17T10:18:37.336Z,20.30
2023-04-17T10:22:45.614Z,21.70
2023-04-17T10:26:53.170Z,21.30
2023-04-17T10:31:06.587Z,20.90
2023-04-17T10:35:38.842Z,23.00
2023-04-17T10:39:55.565Z,22.10
2023-04-17T10:44:09.377Z,24.30
2023-04-17T10:48:25.001Z,22.50
2023-04-17T10:52:46.119Z,17.50
2023-04-17T10:56:58.828Z,23.70
2023-04-17T11:01:12.805Z,24.10
2023-04-17T11:05:21.079Z,22.90
2023-04-17T11:09:30.902Z,20.10
2023-04-17T11:13:42.723Z,20.50
2023-04-17T11:17:51.034Z,20.90
2023-04-17T11:22:01.764Z,21.70
2023-04-17T11:26:10.256Z,20.70
2023-04-17T11:30:27.468Z,22.10
2023-04-17T11:34:36.105Z,23.90
2023-04-17T11:38:50.910Z,24.50
2023-04-17T11:42:58.630Z,20.50
2023-04-17T11:47:06.833Z,23.30
2023-04-17T11:51:14.627Z,20.50
2023-04-17T11:55:22.871Z,19.30
2023-04-17T11:59:34.911Z,18.60
2023-04-17T12:03:45.245Z,19.10
2023-04-17T12:08:04.685Z,18.30
2023-04-17T12:12:12.307Z,19.00
2023-04-17T12:16:22.415Z,19.10
2023-04-17T12:20:30.440Z,22.20
2023-04-17T12:24:38.453Z,17.60
2023-04-17T12:28:46.887Z,17.90
2023-04-17T12:32:54.899Z,18.80
2023-04-17T12:37:02.160Z,19.60
2023-04-17T12:41:09.848Z,16.90
2023-04-17T12:45:18.286Z,18.00
2023-04-17T12:49:25.654Z,16.50
2023-04-17T12:53:33.103Z,16.80
2023-04-17T12:57:41.192Z,15.00
2023-04-17T13:01:48.985Z,16.60
2023-04-17T13:05:57.219Z,16.30
2023-04-17T13:10:06.564Z,14.80
2023-04-17T13:14:15.425Z,16.10
2023-04-17T13:18:23.029Z,17.60
2023-04-17T13:22:30.686Z,19.00
2023-04-17T13:26:39.937Z,16.20
2023-04-17T13:30:47.637Z,19.40
2023-04-17T13:34:58.627Z,19.00
2023-04-17T13:39:11.572Z,14.10
2023-04-17T13:43:19.878Z,14.90
2023-04-17T13:47:27.622Z,14.40
2023-04-17T13:51:36.138Z,15.30
2023-04-17T13:55:43.881Z,18.10
2023-04-17T13:59:52.671Z,16.80
2023-04-17T14:04:00.914Z,14.30
2023-04-17T14:08:09.418Z,22.00
2023-04-17T14:12:20.905Z,14.10
2023-04-17T14:16:29.053Z,13.20
2023-04-17T14:20:36.684Z,11.60
2023-04-17T14:24:45.767Z,15.40
2023-04-17T14:28:53.627Z,14.40
2023-04-17T14:33:01.275Z,14.80
2023-04-17T14:37:09.102Z,12.50
2023-04-17T14:41:16.704Z,14.50
2023-04-17T14:45:24.566Z,14.20
2023-04-17T14:49:34.913Z,12.80
2023-04-17T14:53:42.896Z,11.20
2023-04-17T14:57:50.310Z,11.80
2023-04-17T15:01:58.507Z,11.40
2023-04-17T15:06:09.785Z,10.60
2023-04-17T15:10:18.748Z,11.50
2023-04-17T15:14:29.450Z,11.10
2023-04-17T15:18:37.152Z,11.50
2023-04-17T15:22:52.662Z,13.70
2023-04-17T15:27:00.959Z,11.80
2023-04-17T15:31:08.950Z,11.10
2023-04-17T15:35:16.524Z,12.00
2023-04-17T15:39:24.516Z,14.20
2023-04-17T15:43:32.104Z,18.80
2023-04-17T15:47:40.357Z,21.90
2023-04-17T15:51:49.010Z,20.10
2023-04-17T15:55:57.297Z,16.70
2023-04-17T16:00:06.488Z,16.40
2023-04-17T16:04:14.762Z,15.40
2023-04-17T16:08:22.396Z,16.00
2023-04-17T16:12:31.352Z,15.40
2023-04-17T16:16:39.834Z,14.90
2023-04-17T16:20:47.463Z,16.30
2023-04-17T16:24:55.617Z,14.80
2023-04-17T16:29:03.403Z,18.40
2023-04-17T16:33:11.265Z,15.80
2023-04-17T16:37:18.870Z,16.50
2023-04-17T16:41:26.528Z,20.50
2023-04-17T16:45:33.730Z,18.80
2023-04-17T16:49:42.973Z,18.00
2023-04-17T16:53:52.242Z,16.50
2023-04-17T16:58:00.857Z,23.10
2023-04-17T17:02:08.712Z,20.60
2023-04-17T17:06:17.153Z,15.10
2023-04-17T17:10:25.122Z,15.90
2023-04-17T17:14:32.785Z,16.60
2023-04-17T17:18:41.297Z,17.10
2023-04-17T17:22:52.232Z,13.90
2023-04-17T17:27:00.073Z,19.60
2023-04-17T17:31:09.398Z,14.30
2023-04-17T17:35:18.258Z,15.50
2023-04-17T17:39:26.240Z,14.90
2023-04-17T17:43:33.866Z,14.90
2023-04-17T17:47:41.965Z,15.60
2023-04-17T17:51:49.836Z,17.10
2023-04-17T17:55:58.016Z,15.00
2023-04-17T18:00:06.130Z,17.70
2023-04-17T18:04:15.843Z,17.20
2023-04-17T18:08:24.405Z,17.10
2023-04-17T18:12:32.440Z,16.90
2023-04-17T18:16:42.942Z,18.20
2023-04-17T18:20:51.473Z,20.50
2023-04-17T18:24:59.747Z,19.20
2023-04-17T18:29:07.940Z,17.10
2023-04-17T18:33:18.650Z,20.90
2023-04-17T18:37:27.296Z,18.90
2023-04-17T18:41:35.889Z,18.10
2023-04-17T18:45:44.026Z,18.00
2023-04-17T18:49:54.970Z,18.90
2023-04-17T18:54:03.797Z,17.30
2023-04-17T18:58:14.208Z,16.80
2023-04-17T19:02:23.002Z,18.00
2023-04-17T19:06:31.578Z,15.40
2023-04-17T19:10:40.242Z,17.60
2023-04-17T19:14:51.843Z,16.60
2023-04-17T19:18:59.429Z,16.10
2023-04-17T19:23:12.751Z,15.60
2023-04-17T19:27:21.251Z,19.10
2023-04-17T19:31:28.989Z,18.30
2023-04-17T19:35:37.000Z,16.60
2023-04-17T19:39:45.294Z,19.70
2023-04-17T19:43:54.406Z,19.00
2023-04-17T19:48:03.109Z,18.20
2023-04-17T19:52:15.038Z,17.10
2023-04-17T19:56:24.465Z,18.70
2023-04-17T20:00:32.384Z,18.80
2023-04-17T20:04:40.058Z,19.20
2023-04-17T20:08:47.701Z,19.10
2023-04-17T20:12:57.234Z,21.10
2023-04-17T20:17:05.228Z,18.70
2023-04-17T20:21:13.335Z,17.90
2023-04-17T20:25:20.940Z,19.20
2023-04-17T20:29:29.021Z,20.10
2023-04-17T20:33:36.615Z,20.20
2023-04-17T20:37:46.197Z,18.00
2023-04-17T20:41:54.108Z,18.10
2023-04-17T20:46:01.661Z,19.50
2023-04-17T20:50:11.825Z,20.20
2023-04-17T20:54:23.345Z,19.70
2023-04-17T20:58:32.398Z,18.40
2023-04-17T21:02:41.272Z,19.40
2023-04-17T21:06:50.585Z,19.00
2023-04-17T21:10:58.072Z,20.30
2023-04-17T21:15:05.920Z,19.60
2023-04-17T21:19:13.563Z,17.90
2023-04-17T21:23:21.290Z,22.00
2023-04-17T21:27:29.064Z,20.30
2023-04-17T21:31:37.351Z,19.20
2023-04-17T21:35:44.810Z,19.50
2023-04-17T21:39:53.025Z,24.90
2023-04-17T21:44:02.723Z,21.40
2023-04-17T21:48:10.465Z,21.10
2023-04-17T21:52:18.629Z,21.80
2023-04-17T21:56:26.857Z,23.20
2023-04-17T22:00:34.582Z,21.20
2023-04-17T22:04:43.071Z,21.40
2023-04-17T22:08:52.317Z,24.60
2023-04-17T22:12:59.835Z,25.20
2023-04-17T22:17:07.975Z,21.70
2023-04-17T22:21:15.746Z,24.20
2023-04-17T22:25:23.270Z,24.00
2023-04-17T22:29:31.118Z,23.20
2023-04-17T22:33:38.867Z,23.20
2023-04-17T22:37:46.785Z,22.10
2023-04-17T22:41:54.405Z,26.30
2023-04-17T22:46:02.432Z,26.90
2023-04-17T22:50:11.815Z,23.20
2023-04-17T22:54:23.093Z,21.40
2023-04-17T22:58:34.052Z,22.80
2023-04-17T23:02:42.146Z,22.80
2023-04-17T23:06:49.820Z,23.10
2023-04-17T23:11:05.311Z,23.80
2023-04-17T23:15:14.134Z,19.50
2023-04-17T23:19:22.566Z,21.50
2023-04-17T23:23:30.861Z,22.80
2023-04-17T23:27:38.160Z,22.10
2023-04-17T23:31:46.746Z,22.40
2023-04-17T23:35:54.533Z,21.60
2023-04-17T23:40:02.327Z,20.20
2023-04-17T23:44:10.495Z,21.10
2023-04-17T23:48:17.893Z,22.30
2023-04-17T23:52:26.269Z,20.00
2023-04-17T23:56:34.188Z,22.80
